createdAt,value
2022-11-15T00:00:37.711Z,100659.00
2022-11-15T00:02:09.638Z,100665.06
2022-11-15T00:03:41.556Z,100659.88
2022-11-15T00:05:13.486Z,100658.16
2022-11-15T00:06:45.334Z,100654.69
2022-11-15T00:08:17.356Z,100649.53
2022-11-15T00:09:49.287Z,100654.72
2022-11-15T00:11:21.200Z,100654.69
2022-11-15T00:12:53.014Z,100650.41
2022-11-15T00:14:24.811Z,100646.09
2022-11-15T00:17:28.424Z,100646.09
2022-11-15T00:19:00.332Z,100646.97
2022-11-15T00:20:35.197Z,100643.50
2022-11-15T00:22:07.028Z,100644.38
2022-11-15T00:23:38.936Z,100634.03
2022-11-15T00:25:10.735Z,100634.88
2022-11-15T00:26:42.575Z,100630.56
2022-11-15T00:28:14.601Z,100627.16
2022-11-15T00:29:46.576Z,100631.44
2022-11-15T00:31:18.505Z,100633.19
2022-11-15T00:32:50.576Z,100640.94
2022-11-15T00:34:22.487Z,100623.69
2022-11-15T00:35:54.450Z,100633.19
2022-11-15T00:37:26.427Z,100629.72
2022-11-15T00:38:58.324Z,100630.59
2022-11-15T00:40:30.336Z,100634.91
2022-11-15T00:42:02.420Z,100628.88
2022-11-15T00:43:34.428Z,100625.44
2022-11-15T00:45:06.595Z,100622.00
2022-11-15T00:46:38.457Z,100622.00
2022-11-15T00:48:10.719Z,100632.31
2022-11-15T00:49:43.142Z,100627.13
2022-11-15T00:51:15.053Z,100629.72
2022-11-15T00:52:46.961Z,100621.09
2022-11-15T00:54:18.774Z,100615.94
2022-11-15T00:55:50.655Z,100617.63
2022-11-15T00:57:22.784Z,100610.75
2022-11-15T00:58:54.785Z,100613.34
2022-11-15T01:00:26.822Z,100610.75
2022-11-15T01:01:58.624Z,100602.13
2022-11-15T01:03:31.810Z,100610.72
2022-11-15T01:05:03.978Z,100610.75
2022-11-15T01:06:35.780Z,100611.59
2022-11-15T01:08:07.642Z,100608.16
2022-11-15T01:09:39.522Z,100609.03
2022-11-15T01:11:12.393Z,100597.84
2022-11-15T01:12:44.277Z,100603.84
2022-11-15T01:14:16.028Z,100599.53
2022-11-15T01:15:47.860Z,100598.69
2022-11-15T01:17:19.803Z,100604.72
2022-11-15T01:18:51.785Z,100597.81
2022-11-15T01:20:23.641Z,100600.41
2022-11-15T01:21:55.494Z,100599.56
2022-11-15T01:23:27.374Z,100602.13
2022-11-15T01:24:59.267Z,100607.31
2022-11-15T01:26:31.119Z,100608.16
2022-11-15T01:28:03.041Z,100596.13
2022-11-15T01:29:34.871Z,100600.44
2022-11-15T01:31:08.097Z,100602.13
2022-11-15T01:32:39.830Z,100599.56
2022-11-15T01:34:11.717Z,100598.69
2022-11-15T01:35:43.567Z,100598.72
2022-11-15T01:37:15.324Z,100590.97
2022-11-15T01:38:47.120Z,100590.97
2022-11-15T01:40:18.955Z,100597.00
2022-11-15T01:41:50.757Z,100594.38
2022-11-15T01:43:33.049Z,100597.81
2022-11-15T01:46:37.033Z,100592.66
2022-11-15T01:48:08.841Z,100592.66
2022-11-15T01:49:41.245Z,100595.25
2022-11-15T01:51:13.305Z,100590.09
2022-11-15T01:52:45.244Z,100597.84
2022-11-15T01:54:17.760Z,100599.53
2022-11-15T01:55:49.690Z,100602.13
2022-11-15T01:57:21.559Z,100595.28
2022-11-15T01:58:53.509Z,100587.53
2022-11-15T02:00:25.504Z,100584.94
2022-11-15T02:01:57.521Z,100587.53
2022-11-15T02:03:33.193Z,100584.94
2022-11-15T02:05:05.338Z,100587.53
2022-11-15T02:06:37.255Z,100585.78
2022-11-15T02:08:09.798Z,100584.91
2022-11-15T02:09:41.602Z,100584.91
2022-11-15T02:11:13.478Z,100584.06
2022-11-15T02:12:45.250Z,100584.06
2022-11-15T02:14:17.167Z,100583.19
2022-11-15T02:16:03.311Z,100578.88
2022-11-15T02:17:50.378Z,100582.34
2022-11-15T02:19:34.397Z,100574.59
2022-11-15T02:21:12.173Z,100578.03
2022-11-15T02:22:47.029Z,100578.88
2022-11-15T02:24:26.144Z,100576.28
2022-11-15T02:26:16.501Z,100577.16
2022-11-15T02:28:07.358Z,100571.13
2022-11-15T02:29:58.104Z,100573.69
2022-11-15T02:31:31.511Z,100571.16
2022-11-15T02:33:26.559Z,100567.69
2022-11-15T02:35:09.835Z,100568.53
2022-11-15T02:36:43.174Z,100575.44
2022-11-15T02:38:18.103Z,100574.56
2022-11-15T02:39:54.439Z,100572.84
2022-11-15T02:41:33.062Z,100567.69
2022-11-15T02:43:35.117Z,100573.72
2022-11-15T02:45:07.981Z,100571.16
2022-11-15T02:47:02.102Z,100575.44
2022-11-15T02:48:33.924Z,100571.13
2022-11-15T02:50:08.555Z,100575.44
2022-11-15T02:51:40.387Z,100572.84
2022-11-15T02:53:12.156Z,100571.13
2022-11-15T02:54:44.243Z,100569.41
2022-11-15T02:56:16.016Z,100566.81
2022-11-15T02:57:54.248Z,100566.84
2022-11-15T02:59:29.531Z,100576.31
2022-11-15T03:01:06.331Z,100574.63
2022-11-15T03:02:44.903Z,100572.88
2022-11-15T03:04:35.656Z,100565.13
2022-11-15T03:06:07.546Z,100571.19
2022-11-15T03:07:45.634Z,100568.59
2022-11-15T03:09:26.791Z,100571.19
2022-11-15T03:11:11.576Z,100559.97
2022-11-15T03:12:45.870Z,100561.69
2022-11-15T03:14:17.679Z,100566.88
2022-11-15T03:15:55.243Z,100561.72
2022-11-15T03:17:30.624Z,100560.81
2022-11-15T03:19:13.768Z,100554.81
2022-11-15T03:20:45.613Z,100551.38
2022-11-15T03:22:18.438Z,100553.06
2022-11-15T03:23:50.374Z,100544.47
2022-11-15T03:25:23.508Z,100546.19
2022-11-15T03:26:55.519Z,100549.63
2022-11-15T03:28:29.776Z,100541.88
2022-11-15T03:30:02.450Z,100555.69
2022-11-15T03:31:51.183Z,100548.78
2022-11-15T03:33:23.538Z,100539.28
2022-11-15T03:35:06.726Z,100538.44
2022-11-15T03:36:38.588Z,100533.28
2022-11-15T03:38:16.364Z,100535.00
2022-11-15T03:39:50.026Z,100532.44
2022-11-15T03:41:23.891Z,100527.19
2022-11-15T03:43:01.408Z,100532.41
2022-11-15T03:44:36.430Z,100530.66
2022-11-15T03:46:15.459Z,100534.97
2022-11-15T03:47:48.731Z,100521.19
2022-11-15T03:51:00.137Z,100514.31
2022-11-15T03:52:33.296Z,100520.31
2022-11-15T03:54:05.674Z,100513.47
2022-11-15T03:55:37.518Z,100516.88
2022-11-15T03:57:09.302Z,100510.84
2022-11-15T03:58:41.242Z,100512.56
2022-11-15T04:00:13.267Z,100515.16
2022-11-15T04:01:45.117Z,100514.31
2022-11-15T04:03:17.035Z,100504.84
2022-11-15T04:04:48.921Z,100505.69
2022-11-15T04:06:20.782Z,100506.56
2022-11-15T04:07:52.686Z,100509.16
2022-11-15T04:09:24.851Z,100509.13
2022-11-15T04:10:56.879Z,100503.13
2022-11-15T04:12:32.129Z,100503.13
2022-11-15T04:14:04.054Z,100498.81
2022-11-15T04:15:36.011Z,100505.69
2022-11-15T04:17:07.896Z,100498.81
2022-11-15T04:18:39.880Z,100503.09
2022-11-15T04:20:36.174Z,100500.53
2022-11-15T04:22:27.405Z,100495.38
2022-11-15T04:24:11.197Z,100496.22
2022-11-15T04:25:43.506Z,100497.97
2022-11-15T04:27:15.469Z,100493.66
2022-11-15T04:29:05.786Z,100492.78
2022-11-15T04:30:37.796Z,100492.78
2022-11-15T04:32:09.713Z,100488.50
2022-11-15T04:33:41.543Z,100494.50
2022-11-15T04:35:13.492Z,100493.66
2022-11-15T04:37:04.015Z,100490.19
2022-11-15T04:38:38.012Z,100494.50
2022-11-15T04:40:09.948Z,100490.19
2022-11-15T04:41:44.276Z,100489.34
2022-11-15T04:43:16.165Z,100489.34
2022-11-15T04:44:48.152Z,100485.03
2022-11-15T04:46:20.072Z,100483.31
2022-11-15T04:47:52.159Z,100491.06
2022-11-15T04:49:23.990Z,100492.78
2022-11-15T04:50:55.872Z,100485.03
2022-11-15T04:52:29.903Z,100485.03
2022-11-15T04:54:01.935Z,100484.16
2022-11-15T04:55:33.802Z,100490.22
2022-11-15T04:57:05.618Z,100490.22
2022-11-15T04:58:37.857Z,100492.78
2022-11-15T05:00:11.946Z,100492.78
2022-11-15T05:01:45.298Z,100491.06
2022-11-15T05:03:35.987Z,100486.75
2022-11-15T05:05:08.021Z,100491.06
2022-11-15T05:06:39.819Z,100490.22
2022-11-15T05:08:11.690Z,100491.91
2022-11-15T05:09:43.536Z,100495.38
2022-11-15T05:11:15.521Z,100488.47
2022-11-15T05:12:47.860Z,100491.06
2022-11-15T05:14:19.756Z,100485.03
2022-11-15T05:15:51.696Z,100491.94
2022-11-15T05:17:29.357Z,100480.72
2022-11-15T05:19:01.262Z,100486.75
2022-11-15T05:20:33.422Z,100483.31
2022-11-15T05:22:05.301Z,100479.00
2022-11-15T05:23:37.356Z,100480.72
2022-11-15T05:25:09.558Z,100491.94
2022-11-15T05:26:41.695Z,100484.19
2022-11-15T05:28:14.084Z,100481.59
2022-11-15T05:29:46.052Z,100486.75
2022-11-15T05:31:18.117Z,100481.56
2022-11-15T05:32:50.057Z,100486.75
2022-11-15T05:34:23.977Z,100491.94
2022-11-15T05:35:56.540Z,100498.78
2022-11-15T05:37:28.316Z,100490.19
2022-11-15T05:39:00.160Z,100497.94
2022-11-15T05:40:32.088Z,100496.25
2022-11-15T05:42:13.369Z,100497.09
2022-11-15T05:43:45.248Z,100493.69
2022-11-15T05:45:17.951Z,100491.94
2022-11-15T05:46:52.188Z,100488.47
2022-11-15T05:48:24.013Z,100491.91
2022-11-15T05:49:55.971Z,100497.09
2022-11-15T05:51:27.873Z,100501.38
2022-11-15T05:53:04.614Z,100498.81
2022-11-15T05:54:36.875Z,100491.91
2022-11-15T05:56:09.659Z,100489.34
2022-11-15T05:57:41.651Z,100500.53
2022-11-15T05:59:13.838Z,100491.03
2022-11-15T06:00:45.786Z,100488.47
2022-11-15T06:02:17.845Z,100493.63
2022-11-15T06:03:49.778Z,100489.34
2022-11-15T06:05:21.654Z,100491.09
2022-11-15T06:06:53.624Z,100495.38
2022-11-15T06:08:25.546Z,100492.78
2022-11-15T06:09:59.890Z,100494.47
2022-11-15T06:11:31.758Z,100491.94
2022-11-15T06:13:04.545Z,100488.47
2022-11-15T06:14:36.344Z,100493.63
2022-11-15T06:16:08.397Z,100499.66
2022-11-15T06:17:40.393Z,100502.28
2022-11-15T06:19:12.239Z,100505.72
2022-11-15T06:20:44.129Z,100500.53
2022-11-15T06:22:16.028Z,100497.13
2022-11-15T06:23:47.993Z,100501.41
2022-11-15T06:25:19.884Z,100496.25
2022-11-15T06:26:53.877Z,100493.66
2022-11-15T06:28:26.807Z,100500.56
2022-11-15T06:29:58.860Z,100501.41
2022-11-15T06:31:30.951Z,100503.13
2022-11-15T06:33:03.265Z,100497.94
2022-11-15T06:34:37.179Z,100502.28
2022-11-15T06:36:16.075Z,100497.97
2022-11-15T06:37:49.360Z,100502.25
2022-11-15T06:39:21.832Z,100497.09
2022-11-15T06:40:53.685Z,100502.25
2022-11-15T06:42:25.664Z,100499.66
2022-11-15T06:43:58.259Z,100497.97
2022-11-15T06:45:30.254Z,100497.09
2022-11-15T06:47:02.228Z,100488.50
2022-11-15T06:48:34.456Z,100485.88
2022-11-15T06:50:06.618Z,100491.94
2022-11-15T06:51:38.480Z,100485.03
2022-11-15T06:53:10.332Z,100491.06
2022-11-15T06:54:42.275Z,100493.63
2022-11-15T06:56:14.215Z,100489.34
2022-11-15T06:57:53.454Z,100482.44
2022-11-15T06:59:25.335Z,100481.59
2022-11-15T07:01:04.017Z,100476.41
2022-11-15T07:02:35.985Z,100482.47
2022-11-15T07:04:07.887Z,100481.56
2022-11-15T07:05:39.837Z,100487.59
2022-11-15T07:07:12.002Z,100484.16
2022-11-15T07:08:43.846Z,100480.69
2022-11-15T07:10:17.283Z,100474.69
2022-11-15T07:11:49.167Z,100474.69
2022-11-15T07:13:21.114Z,100484.16
2022-11-15T07:14:53.090Z,100481.56
2022-11-15T07:16:25.058Z,100480.72
2022-11-15T07:18:02.894Z,100480.72
2022-11-15T07:19:34.768Z,100474.69
2022-11-15T07:21:07.314Z,100473.81
2022-11-15T07:22:39.173Z,100478.97
2022-11-15T07:24:13.535Z,100475.53
2022-11-15T07:25:45.392Z,100478.13
2022-11-15T07:27:17.407Z,100482.44
2022-11-15T07:28:49.752Z,100481.56
2022-11-15T07:30:21.779Z,100472.06
2022-11-15T07:31:53.853Z,100479.84
2022-11-15T07:33:25.858Z,100467.78
2022-11-15T07:34:57.821Z,100475.53
2022-11-15T07:36:29.867Z,100462.59
2022-11-15T07:38:02.655Z,100472.94
2022-11-15T07:39:34.547Z,100466.91
2022-11-15T07:41:06.616Z,100467.78
2022-11-15T07:42:57.549Z,100468.63
2022-11-15T07:44:29.499Z,100466.03
2022-11-15T07:46:05.568Z,100468.63
2022-11-15T07:47:37.499Z,100473.78
2022-11-15T07:49:09.531Z,100466.91
2022-11-15T07:52:14.680Z,100462.59
2022-11-15T07:53:46.573Z,100465.19
2022-11-15T07:55:18.478Z,100471.22
2022-11-15T07:56:50.497Z,100462.59
2022-11-15T07:58:22.382Z,100466.91
2022-11-15T07:59:54.397Z,100466.03
2022-11-15T08:01:26.510Z,100466.06
2022-11-15T08:03:11.835Z,100471.22
2022-11-15T08:04:43.865Z,100462.59
2022-11-15T08:06:16.172Z,100464.34
2022-11-15T08:07:48.038Z,100460.03
2022-11-15T08:09:20.081Z,100454.84
2022-11-15T08:10:52.117Z,100459.16
2022-11-15T08:12:24.234Z,100460.88
2022-11-15T08:13:56.182Z,100447.09
2022-11-15T08:15:28.428Z,100456.56
2022-11-15T08:17:00.260Z,100455.72
2022-11-15T08:18:32.357Z,100459.13
2022-11-15T08:21:36.685Z,100458.28
2022-11-15T08:23:09.171Z,100457.41
2022-11-15T08:24:41.667Z,100455.69
2022-11-15T08:26:13.642Z,100454.84
2022-11-15T08:27:45.789Z,100448.78
2022-11-15T08:29:17.817Z,100447.94
2022-11-15T08:30:49.712Z,100440.16
2022-11-15T08:32:21.756Z,100442.75
2022-11-15T08:33:53.601Z,100438.44
2022-11-15T08:35:28.992Z,100435.84
2022-11-15T08:37:01.692Z,100436.69
2022-11-15T08:38:34.779Z,100442.72
2022-11-15T08:40:07.226Z,100434.97
2022-11-15T08:41:39.496Z,100434.09
2022-11-15T08:43:11.568Z,100436.66
2022-11-15T08:44:43.874Z,100428.94
2022-11-15T08:46:16.140Z,100420.31
2022-11-15T08:47:53.788Z,100426.31
2022-11-15T08:49:26.365Z,100419.44
2022-11-15T08:50:58.502Z,100416.00
2022-11-15T08:52:30.420Z,100409.13
2022-11-15T08:54:02.284Z,100414.28
2022-11-15T08:55:34.332Z,100418.56
2022-11-15T08:57:06.294Z,100418.56
2022-11-15T08:58:38.181Z,100409.13
2022-11-15T09:00:10.471Z,100411.69
2022-11-15T09:01:42.487Z,100407.38
2022-11-15T09:03:17.020Z,100409.13
2022-11-15T09:04:49.543Z,100407.38
2022-11-15T09:06:21.657Z,100409.13
2022-11-15T09:07:56.663Z,100401.34
2022-11-15T09:09:28.762Z,100399.63
2022-11-15T09:11:03.889Z,100401.34
2022-11-15T09:12:36.490Z,100398.78
2022-11-15T09:14:08.403Z,100397.91
2022-11-15T09:15:40.528Z,100390.16
2022-11-15T09:17:12.812Z,100389.31
2022-11-15T09:18:44.917Z,100391.00
2022-11-15T09:20:17.151Z,100387.59
2022-11-15T09:21:49.405Z,100383.25
2022-11-15T09:23:21.419Z,100378.97
2022-11-15T09:24:53.398Z,100391.03
2022-11-15T09:26:25.543Z,100388.47
2022-11-15T09:29:43.911Z,100383.28
2022-11-15T09:31:21.064Z,100388.47
2022-11-15T09:32:54.010Z,100387.59
2022-11-15T09:34:26.040Z,100383.28
2022-11-15T09:36:01.466Z,100381.56
2022-11-15T09:37:33.765Z,100380.69
2022-11-15T09:39:05.735Z,100380.69
2022-11-15T09:40:38.380Z,100380.69
2022-11-15T09:42:15.994Z,100378.13
2022-11-15T09:43:47.974Z,100375.53
2022-11-15T09:45:33.577Z,100373.81
2022-11-15T09:47:28.261Z,100372.94
2022-11-15T09:49:01.093Z,100365.19
2022-11-15T09:50:38.149Z,100364.31
2022-11-15T09:52:10.407Z,100357.41
2022-11-15T09:55:22.758Z,100351.34
2022-11-15T09:56:55.167Z,100350.50
2022-11-15T09:58:35.838Z,100355.69
2022-11-15T10:00:45.292Z,100345.31
2022-11-15T10:02:32.159Z,100342.72
2022-11-15T10:04:07.813Z,100340.09
2022-11-15T10:05:48.901Z,100333.22
2022-11-15T10:07:23.272Z,100336.66
2022-11-15T10:08:57.316Z,100331.50
2022-11-15T10:10:32.028Z,100325.44
2022-11-15T10:12:04.119Z,100325.44
2022-11-15T10:13:37.143Z,100315.97
2022-11-15T10:15:13.440Z,100323.72
2022-11-15T10:17:04.000Z,100319.41
2022-11-15T10:18:36.647Z,100319.41
2022-11-15T10:20:12.182Z,100322.84
2022-11-15T10:22:13.255Z,100320.25
2022-11-15T10:23:45.122Z,100308.19
2022-11-15T10:25:22.267Z,100306.47
2022-11-15T10:26:54.184Z,100315.09
2022-11-15T10:29:58.942Z,100311.66
2022-11-15T10:31:31.108Z,100303.00
2022-11-15T10:33:23.285Z,100304.75
2022-11-15T10:34:55.190Z,100303.00
2022-11-15T10:36:30.031Z,100296.13
2022-11-15T10:38:09.007Z,100293.50
2022-11-15T10:39:41.084Z,100294.38
2022-11-15T10:43:27.579Z,100282.28
2022-11-15T10:44:59.548Z,100287.44
2022-11-15T10:46:46.284Z,100282.28
2022-11-15T10:48:19.277Z,100278.81
2022-11-15T10:49:55.541Z,100285.72
2022-11-15T10:51:31.572Z,100278.81
2022-11-15T10:53:04.200Z,100281.38
2022-11-15T10:54:38.264Z,100277.94
2022-11-15T10:56:10.890Z,100268.44
2022-11-15T10:57:49.086Z,100265.81
2022-11-15T10:59:25.604Z,100261.53
2022-11-15T11:00:57.557Z,100265.81
2022-11-15T11:02:32.308Z,100261.53
2022-11-15T11:04:05.418Z,100262.38
2022-11-15T11:05:42.365Z,100252.03
2022-11-15T11:07:25.501Z,100252.88
2022-11-15T11:08:58.582Z,100257.16
2022-11-15T11:10:51.370Z,100252.88
2022-11-15T11:12:22.897Z,100249.44
2022-11-15T11:13:55.053Z,100239.94
2022-11-15T11:15:27.739Z,100246.81
2022-11-15T11:17:38.564Z,100249.41
2022-11-15T11:19:29.089Z,100248.53
2022-11-15T11:21:04.778Z,100237.31
2022-11-15T11:22:39.682Z,100239.06
2022-11-15T11:24:20.413Z,100239.94
2022-11-15T11:26:11.575Z,100234.78
2022-11-15T11:27:43.639Z,100229.63
2022-11-15T11:29:16.183Z,100235.66
2022-11-15T11:31:00.555Z,100226.19
2022-11-15T11:32:36.286Z,100220.13
2022-11-15T11:34:17.713Z,100223.59
2022-11-15T11:36:12.096Z,100226.16
2022-11-15T11:37:47.083Z,100224.44
2022-11-15T11:39:27.906Z,100219.25
2022-11-15T11:41:12.493Z,100217.47
2022-11-15T11:43:03.193Z,100214.88
2022-11-15T11:44:38.166Z,100217.47
2022-11-15T11:46:25.455Z,100210.56
2022-11-15T11:48:06.615Z,100208.81
2022-11-15T11:49:38.548Z,100207.06
2022-11-15T11:51:14.046Z,100204.53
2022-11-15T11:53:03.424Z,100200.22
2022-11-15T11:54:45.178Z,100198.47
2022-11-15T11:56:36.696Z,100201.06
2022-11-15T11:58:16.065Z,100198.47
2022-11-15T11:59:47.943Z,100195.88
2022-11-15T12:01:19.818Z,100198.47
2022-11-15T12:03:10.504Z,100188.06
2022-11-15T12:04:43.883Z,100184.63
2022-11-15T12:06:34.592Z,100182.09
2022-11-15T12:08:27.045Z,100182.06
2022-11-15T12:10:17.639Z,100177.72
2022-11-15T12:11:53.880Z,100172.53
2022-11-15T12:13:26.768Z,100173.38
2022-11-15T12:15:10.920Z,100178.56
2022-11-15T12:16:44.154Z,100168.22
2022-11-15T12:18:17.021Z,100173.44
2022-11-15T12:19:48.919Z,100176.03
2022-11-15T12:21:29.627Z,100164.81
2022-11-15T12:23:04.613Z,100164.00
2022-11-15T12:24:39.622Z,100171.75
2022-11-15T12:28:01.263Z,100170.00
2022-11-15T12:29:35.124Z,100168.28
2022-11-15T12:31:07.031Z,100169.13
2022-11-15T12:32:40.896Z,100168.31
2022-11-15T12:34:21.789Z,100159.66
2022-11-15T12:36:00.992Z,100158.81
2022-11-15T12:37:45.480Z,100151.91
2022-11-15T12:39:17.928Z,100151.91
2022-11-15T12:41:08.550Z,100147.63
2022-11-15T12:42:46.182Z,100149.38
2022-11-15T12:44:33.159Z,100148.47
2022-11-15T12:46:06.376Z,100151.91
2022-11-15T12:47:38.614Z,100145.03
2022-11-15T12:49:25.872Z,100138.13
2022-11-15T12:50:59.775Z,100145.03
2022-11-15T12:52:31.741Z,100145.94
2022-11-15T12:54:15.388Z,100145.94
2022-11-15T12:55:47.786Z,100157.13
2022-11-15T12:57:29.004Z,100153.66
2022-11-15T12:59:03.657Z,100146.75
2022-11-15T13:00:35.817Z,100147.63
2022-11-15T13:02:17.488Z,100147.63
2022-11-15T13:04:25.462Z,100148.47
2022-11-15T13:05:58.917Z,100146.72
2022-11-15T13:07:53.692Z,100143.25
2022-11-15T13:09:37.744Z,100143.28
2022-11-15T13:11:28.210Z,100130.34
2022-11-15T13:13:01.180Z,100134.66
2022-11-15T13:14:39.122Z,100134.66
2022-11-15T13:16:11.233Z,100132.06
2022-11-15T13:17:55.804Z,100126.03
2022-11-15T13:19:27.846Z,100139.81
2022-11-15T13:21:02.633Z,100131.22
2022-11-15T13:22:56.078Z,100129.47
2022-11-15T13:24:28.060Z,100134.66
2022-11-15T13:26:18.278Z,100132.94
2022-11-15T13:27:50.770Z,100128.63
2022-11-15T13:29:25.948Z,100134.66
2022-11-15T13:30:58.617Z,100125.16
2022-11-15T13:32:30.649Z,100123.44
2022-11-15T13:34:07.308Z,100129.47
2022-11-15T13:35:53.729Z,100127.72
2022-11-15T13:37:25.619Z,100125.97
2022-11-15T13:39:05.873Z,100125.97
2022-11-15T13:40:38.759Z,100129.47
2022-11-15T13:42:20.727Z,100122.53
2022-11-15T13:43:53.946Z,100116.53
2022-11-15T13:45:26.165Z,100124.34
2022-11-15T13:47:17.371Z,100119.25
2022-11-15T13:49:09.693Z,100124.41
2022-11-15T13:50:44.110Z,100133.06
2022-11-15T13:52:17.798Z,100129.59
2022-11-15T13:53:54.105Z,100127.88
2022-11-15T13:55:26.102Z,100119.25
2022-11-15T13:56:59.496Z,100127.00
2022-11-15T13:58:31.871Z,100114.06
2022-11-15T14:00:07.888Z,100108.84
2022-11-15T14:01:41.120Z,100110.59
2022-11-15T14:03:16.343Z,100113.16
2022-11-15T14:04:52.638Z,100109.75
2022-11-15T14:06:25.633Z,100110.63
2022-11-15T14:07:58.944Z,100119.25
2022-11-15T14:09:31.327Z,100108.03
2022-11-15T14:11:23.729Z,100103.72
2022-11-15T14:12:55.726Z,100114.06
2022-11-15T14:14:29.048Z,100103.72
2022-11-15T14:16:17.188Z,100110.63
2022-11-15T14:17:50.405Z,100101.97
2022-11-15T14:19:22.502Z,100097.69
2022-11-15T14:21:06.474Z,100096.81
2022-11-15T14:22:39.195Z,100093.38
2022-11-15T14:24:21.406Z,100097.66
2022-11-15T14:25:56.768Z,100091.63
2022-11-15T14:27:29.650Z,100091.63
2022-11-15T14:29:20.301Z,100088.22
2022-11-15T14:30:52.983Z,100087.34
2022-11-15T14:32:26.451Z,100089.94
2022-11-15T14:33:58.652Z,100085.63
2022-11-15T14:35:30.520Z,100095.06
2022-11-15T14:37:08.454Z,100089.91
2022-11-15T14:38:40.412Z,100089.03
2022-11-15T14:40:16.630Z,100084.75
2022-11-15T14:41:48.654Z,100082.19
2022-11-15T14:43:20.605Z,100080.44
2022-11-15T14:44:55.918Z,100082.97
2022-11-15T14:46:27.963Z,100074.38
2022-11-15T14:48:00.181Z,100083.88
2022-11-15T14:49:32.243Z,100079.53
2022-11-15T14:51:04.272Z,100073.53
2022-11-15T14:52:36.941Z,100079.53
2022-11-15T14:55:40.770Z,100071.78
2022-11-15T14:57:13.083Z,100062.28
2022-11-15T14:58:45.156Z,100061.44
2022-11-15T15:00:17.360Z,100060.59
2022-11-15T15:01:49.422Z,100058.00
2022-11-15T15:03:21.632Z,100056.31
2022-11-15T15:04:53.914Z,100063.22
2022-11-15T15:06:28.959Z,100069.25
2022-11-15T15:08:01.403Z,100068.44
2022-11-15T15:09:33.855Z,100064.16
2022-11-15T15:11:08.675Z,100069.38
2022-11-15T15:12:40.662Z,100071.09
2022-11-15T15:14:12.929Z,100070.25
2022-11-15T15:15:45.116Z,100065.91
2022-11-15T15:17:17.427Z,100064.22
2022-11-15T15:18:49.529Z,100065.91
2022-11-15T15:20:21.883Z,100066.75
2022-11-15T15:21:54.131Z,100062.47
2022-11-15T15:23:28.496Z,100054.72
2022-11-15T15:25:00.471Z,100057.28
2022-11-15T15:26:35.170Z,100062.47
2022-11-15T15:28:07.191Z,100054.72
2022-11-15T15:29:39.441Z,100049.53
2022-11-15T15:31:11.462Z,100052.97
2022-11-15T15:32:43.394Z,100046.97
2022-11-15T15:34:16.865Z,100046.97
2022-11-15T15:35:49.182Z,100034.88
2022-11-15T15:37:25.793Z,100040.03
2022-11-15T15:38:57.763Z,100040.03
2022-11-15T15:40:30.497Z,100036.59
2022-11-15T15:42:02.588Z,100027.13
2022-11-15T15:43:34.496Z,100033.19
2022-11-15T15:45:07.179Z,100040.09
2022-11-15T15:46:39.374Z,100035.78
2022-11-15T15:48:14.701Z,100039.22
2022-11-15T15:49:47.050Z,100034.03
2022-11-15T15:51:21.387Z,100040.09
2022-11-15T15:54:39.484Z,100042.69
2022-11-15T15:56:11.467Z,100040.09
2022-11-15T15:57:43.705Z,100035.78
2022-11-15T15:59:15.805Z,100035.78
2022-11-15T16:00:50.965Z,100030.59
2022-11-15T16:02:22.958Z,100031.44
2022-11-15T16:03:55.002Z,100027.16
2022-11-15T16:05:27.119Z,100028.88
2022-11-15T16:07:02.192Z,100021.09
2022-11-15T16:08:53.311Z,100028.88
2022-11-15T16:10:27.569Z,100034.88
2022-11-15T16:11:59.626Z,100027.13
2022-11-15T16:13:32.366Z,100028.00
2022-11-15T16:15:04.639Z,100021.97
2022-11-15T16:16:37.094Z,100023.69
2022-11-15T16:18:10.885Z,100025.41
2022-11-15T16:19:43.153Z,100021.09
2022-11-15T16:21:15.266Z,100024.59
2022-11-15T16:22:47.313Z,100015.94
2022-11-15T16:25:57.126Z,100022.84
2022-11-15T16:27:29.154Z,100011.66
2022-11-15T16:29:01.224Z,100009.94
2022-11-15T16:30:33.243Z,100011.66
2022-11-15T16:32:05.455Z,100006.50
2022-11-15T16:33:38.085Z,100009.09
2022-11-15T16:35:15.442Z,100003.91
2022-11-15T16:36:47.469Z,100004.75
2022-11-15T16:38:19.604Z,99998.75
2022-11-15T16:39:51.485Z,100000.44
2022-11-15T16:41:23.613Z,99993.56
2022-11-15T16:42:57.078Z,99997.84
2022-11-15T16:44:29.661Z,99992.72
2022-11-15T16:46:04.064Z,99993.59
2022-11-15T16:47:36.094Z,99994.47
2022-11-15T16:49:12.403Z,99987.63
2022-11-15T16:50:44.366Z,99991.91
2022-11-15T16:52:21.052Z,99983.31
2022-11-15T16:53:53.455Z,99984.19
2022-11-15T16:55:29.109Z,99988.53
2022-11-15T16:57:03.825Z,99981.69
2022-11-15T16:58:35.684Z,99979.94
2022-11-15T17:00:08.058Z,99981.63
2022-11-15T17:01:47.222Z,99981.69
2022-11-15T17:03:19.191Z,99972.19
2022-11-15T17:04:51.056Z,99976.53
2022-11-15T17:06:23.630Z,99967.91
2022-11-15T17:07:55.696Z,99964.44
2022-11-15T17:09:27.634Z,99960.16
2022-11-15T17:10:59.606Z,99969.63
2022-11-15T17:12:31.724Z,99958.41
2022-11-15T17:14:03.765Z,99962.69
2022-11-15T17:15:35.699Z,99956.66
2022-11-15T17:17:07.608Z,99955.78
2022-11-15T17:18:39.848Z,99957.50
2022-11-15T17:20:14.832Z,99957.50
2022-11-15T17:21:47.350Z,99954.94
2022-11-15T17:23:19.345Z,99952.34
2022-11-15T17:24:51.333Z,99953.19
2022-11-15T17:26:30.387Z,99948.03
2022-11-15T17:28:03.524Z,99937.69
2022-11-15T17:29:35.720Z,99935.09
2022-11-15T17:31:11.526Z,99927.34
2022-11-15T17:32:44.309Z,99928.22
2022-11-15T17:34:16.576Z,99930.81
2022-11-15T17:35:55.349Z,99927.34
2022-11-15T17:37:27.135Z,99917.91
2022-11-15T17:39:00.128Z,99920.44
2022-11-15T17:40:32.580Z,99919.59
2022-11-15T17:42:04.758Z,99917.00
2022-11-15T17:43:37.143Z,99911.81
2022-11-15T17:45:11.536Z,99904.91
2022-11-15T17:46:43.966Z,99907.50
2022-11-15T17:48:15.935Z,99907.50
2022-11-15T17:49:47.828Z,99910.13
2022-11-15T17:51:19.917Z,99914.41
2022-11-15T17:52:51.978Z,99904.97
2022-11-15T17:54:23.996Z,99917.00
2022-11-15T17:55:56.695Z,99910.97
2022-11-15T17:57:28.685Z,99906.63
2022-11-15T17:59:00.930Z,99906.66
2022-11-15T18:00:33.564Z,99904.97
2022-11-15T18:03:38.710Z,99898.91
2022-11-15T18:05:10.792Z,99901.50
2022-11-15T18:06:43.307Z,99895.47
2022-11-15T18:08:18.337Z,99893.78
2022-11-15T18:09:50.496Z,99890.31
2022-11-15T18:11:23.878Z,99890.38
2022-11-15T18:12:55.940Z,99887.78
2022-11-15T18:14:28.227Z,99898.13
2022-11-15T18:16:03.276Z,99897.28
2022-11-15T18:17:35.477Z,99893.84
2022-11-15T18:19:13.632Z,99893.81
2022-11-15T18:20:45.629Z,99895.53
2022-11-15T18:22:18.890Z,99890.38
2022-11-15T18:23:53.527Z,99881.78
2022-11-15T18:25:25.575Z,99880.03
2022-11-15T18:26:57.922Z,99880.03
2022-11-15T18:28:31.456Z,99874.88